Time;durP1;ratioP1;P1;durP2;ratioP2;P2;SDS_P1;SDS_P2;PMS_P1;PMS_P2;Temp;Humidity;BMP_temperature;BMP_pressure;BME280_temperature;BME280_humidity;BME280_pressure;Samples;Min_cycle;Max_cycle;Signal;HPM_P1;HPM_P2
2022/05/06 00:01:10;;;;;;;9.60;6.37;;;14.60;79.40;;;;;;5066280;28;20504;-77
2022/05/06 00:03:38;;;;;;;8.90;6.80;;;14.50;79.40;;;;;;5064788;28;20504;-77
2022/05/06 00:06:06;;;;;;;10.33;6.57;;;14.50;79.40;;;;;;5048442;28;20868;-77
2022/05/06 00:08:35;;;;;;;11.20;6.63;;;14.50;79.40;;;;;;5055852;28;20466;-77
2022/05/06 00:11:03;;;;;;;10.80;7.23;;;14.50;79.40;;;;;;5063288;28;20469;-77
2022/05/06 00:13:31;;;;;;;10.60;7.40;;;14.50;79.40;;;;;;5063452;28;20452;-76
2022/05/06 00:16:01;;;;;;;16.03;7.30;;;14.50;79.40;;;;;;5064162;28;20473;-77
2022/05/06 00:18:30;;;;;;;13.03;6.93;;;14.50;79.40;;;;;;5063561;28;20458;-77
2022/05/06 00:20:58;;;;;;;12.07;6.87;;;14.50;79.40;;;;;;5078612;28;20564;-77
2022/05/06 00:23:26;;;;;;;8.80;6.50;;;14.50;79.40;;;;;;5064076;28;20516;-78
2022/05/06 00:25:55;;;;;;;9.37;6.07;;;14.50;79.40;;;;;;5077663;28;21278;-75
2022/05/06 00:28:23;;;;;;;9.33;6.53;;;14.50;79.40;;;;;;5063445;28;20462;-77
2022/05/06 00:30:51;;;;;;;10.07;6.67;;;14.50;79.40;;;;;;5063054;28;20478;-76
2022/05/06 00:33:24;;;;;;;8.47;6.07;;;14.50;79.30;;;;;;5064080;28;20469;-76
2022/05/06 00:35:54;;;;;;;9.07;6.20;;;14.50;79.30;;;;;;5063943;28;20496;-76
2022/05/06 00:38:22;;;;;;;8.73;5.70;;;14.40;79.30;;;;;;5074280;28;20488;-77
2022/05/06 00:40:50;;;;;;;7.63;5.50;;;14.40;79.30;;;;;;5063110;28;20502;-77
2022/05/06 00:43:19;;;;;;;7.90;5.43;;;14.40;79.20;;;;;;5062417;28;20468;-77
2022/05/06 00:45:52;;;;;;;7.80;5.40;;;14.40;79.20;;;;;;5063792;28;20464;-77
2022/05/06 00:48:22;;;;;;;8.10;5.43;;;14.40;79.10;;;;;;5062787;28;20526;-78
2022/05/06 00:50:51;;;;;;;7.70;5.17;;;14.30;79.10;;;;;;5063253;28;21069;-77
2022/05/06 00:53:19;;;;;;;8.80;6.40;;;14.30;79.10;;;;;;5063488;28;20472;-77
2022/05/06 00:55:49;;;;;;;8.13;5.63;;;14.30;79.10;;;;;;5059363;28;20454;-77
2022/05/06 00:58:17;;;;;;;11.23;6.70;;;14.30;79.00;;;;;;5058833;28;20477;-78
2022/05/06 01:00:45;;;;;;;8.30;4.90;;;14.30;79.00;;;;;;5063484;28;20474;-77
2022/05/06 01:03:13;;;;;;;9.03;6.67;;;14.30;79.00;;;;;;5063350;28;20458;-78
2022/05/06 01:05:43;;;;;;;10.20;6.07;;;14.20;79.00;;;;;;5064832;28;20470;-77
2022/05/06 01:08:11;;;;;;;8.10;6.23;;;14.20;78.90;;;;;;5060395;28;20458;-77
2022/05/06 01:10:42;;;;;;;10.43;6.93;;;14.20;78.90;;;;;;5079760;28;20900;-77
2022/05/06 01:13:10;;;;;;;9.00;6.80;;;14.20;78.90;;;;;;5062824;28;20565;-77
2022/05/06 01:15:39;;;;;;;9.30;6.23;;;14.20;78.90;;;;;;5056285;28;20472;-77
2022/05/06 01:18:20;;;;;;;8.53;5.23;;;14.20;79.00;;;;;;5079843;28;20528;-77
2022/05/06 01:20:52;;;;;;;7.77;5.53;;;14.10;79.00;;;;;;5054427;28;20845;-77
2022/05/06 01:23:23;;;;;;;8.93;5.60;;;14.10;79.00;;;;;;5058260;28;20461;-77
2022/05/06 01:25:52;;;;;;;12.50;5.70;;;14.10;78.90;;;;;;5065036;28;21255;-77
2022/05/06 01:28:23;;;;;;;14.87;6.47;;;14.10;78.90;;;;;;5065399;28;20481;-77
2022/05/06 01:30:58;;;;;;;10.50;6.40;;;14.00;78.80;;;;;;5066561;28;20517;-77
2022/05/06 01:33:27;;;;;;;9.10;5.67;;;14.00;78.80;;;;;;5079902;28;22853;-78
2022/05/06 01:35:58;;;;;;;10.30;6.37;;;14.00;78.80;;;;;;5075727;28;20458;-78
2022/05/06 01:38:33;;;;;;;9.97;6.70;;;14.00;78.80;;;;;;5065233;28;20460;-78
2022/05/06 01:41:04;;;;;;;11.97;6.23;;;14.00;78.80;;;;;;5080017;28;20489;-77
2022/05/06 01:43:43;;;;;;;8.97;6.20;;;14.00;78.70;;;;;;5068560;28;21054;-77
2022/05/06 01:46:14;;;;;;;9.17;6.03;;;14.00;78.70;;;;;;5058903;28;20476;-77
2022/05/06 01:48:50;;;;;;;10.47;6.57;;;13.90;78.60;;;;;;5066014;28;20507;-77
2022/05/06 01:51:20;;;;;;;13.23;6.83;;;13.90;78.60;;;;;;5066642;28;20477;-77
2022/05/06 01:53:50;;;;;;;9.13;6.33;;;13.90;78.60;;;;;;5064717;28;20460;-77
2022/05/06 01:56:19;;;;;;;7.90;5.27;;;13.90;78.80;;;;;;5064995;28;20474;-77
2022/05/06 01:58:48;;;;;;;7.07;5.27;;;13.90;78.60;;;;;;5083332;28;20454;-77
2022/05/06 02:01:16;;;;;;;8.67;5.57;;;13.90;78.60;;;;;;5055837;28;20574;-77
2022/05/06 02:06:46;;;;;;;8.20;5.20;;;13.80;78.60;;;;;;5028110;28;21112;-77
2022/05/06 02:09:19;;;;;;;8.23;5.70;;;13.80;78.50;;;;;;5028355;28;20463;-77
2022/05/06 02:12:13;;;;;;;8.20;5.70;;;13.70;78.40;;;;;;5054014;28;20498;-77
2022/05/06 02:15:10;;;;;;;6.97;4.90;;;13.70;78.30;;;;;;5064660;28;20477;-76
2022/05/06 02:17:54;;;;;;;11.97;5.70;;;13.60;78.40;;;;;;5064201;28;20453;-78
2022/05/06 02:20:33;;;;;;;11.47;5.63;;;13.60;78.50;;;;;;5060010;28;20489;-74
2022/05/06 02:23:20;;;;;;;9.47;5.30;;;13.60;78.50;;;;;;5067045;28;20488;-76
2022/05/06 02:26:03;;;;;;;7.07;4.80;;;13.60;78.50;;;;;;5064817;28;20585;-77
2022/05/06 02:28:45;;;;;;;6.83;4.83;;;13.50;78.50;;;;;;5064040;28;20466;-76
2022/05/06 02:33:58;;;;;;;6.90;4.43;;;13.50;78.30;;;;;;5058860;28;21269;-78
2022/05/06 02:36:31;;;;;;;7.90;4.80;;;13.50;78.20;;;;;;5077850;28;20473;-75
2022/05/06 02:38:59;;;;;;;8.57;5.83;;;13.50;78.20;;;;;;5065879;28;20454;-76
2022/05/06 02:41:31;;;;;;;11.00;6.13;;;13.50;78.20;;;;;;5057257;28;21063;-75
2022/05/06 02:43:59;;;;;;;10.20;5.27;;;13.50;78.20;;;;;;5064849;28;20466;-75
2022/05/06 02:46:33;;;;;;;9.37;5.30;;;13.40;78.20;;;;;;5066505;28;20925;-74
2022/05/06 02:49:02;;;;;;;9.13;5.23;;;13.40;78.10;;;;;;5065625;28;20535;-76
2022/05/06 02:51:30;;;;;;;8.70;5.10;;;13.40;78.10;;;;;;5065651;28;20532;-77
2022/05/06 02:53:58;;;;;;;11.27;4.90;;;13.40;78.00;;;;;;5065337;28;20485;-77
2022/05/06 02:56:33;;;;;;;8.80;6.37;;;13.40;78.00;;;;;;5074967;28;20462;-76
2022/05/06 02:59:05;;;;;;;9.37;5.47;;;13.40;77.90;;;;;;5065752;28;20494;-79
2022/05/06 03:01:36;;;;;;;11.63;6.43;;;13.30;77.90;;;;;;5076121;28;20562;-76
2022/05/06 03:04:11;;;;;;;8.43;5.80;;;13.30;78.00;;;;;;5061445;28;20454;-77
2022/05/06 03:06:44;;;;;;;8.40;5.10;;;13.30;77.80;;;;;;5065683;28;20474;-78
2022/05/06 03:09:17;;;;;;;8.40;5.70;;;13.20;77.80;;;;;;5064117;28;20515;-76
2022/05/06 03:11:47;;;;;;;9.40;4.87;;;13.20;77.80;;;;;;5064484;28;20466;-78
2022/05/06 03:14:19;;;;;;;8.10;5.50;;;13.20;77.80;;;;;;5077743;28;20461;-77
2022/05/06 03:17:01;;;;;;;7.87;5.30;;;13.20;77.80;;;;;;5062288;28;21087;-77
2022/05/06 03:19:30;;;;;;;10.40;5.90;;;13.20;77.70;;;;;;5065078;28;20829;-77
2022/05/06 03:21:58;;;;;;;7.77;5.20;;;13.10;77.70;;;;;;5065606;28;20478;-78
2022/05/06 03:24:26;;;;;;;9.10;5.37;;;13.10;77.70;;;;;;5062356;28;20945;-77
2022/05/06 03:26:57;;;;;;;6.50;4.83;;;13.10;77.70;;;;;;5066378;28;20454;-77
2022/05/06 03:29:25;;;;;;;8.97;5.30;;;13.10;77.60;;;;;;5060819;28;20462;-78
2022/05/06 03:31:56;;;;;;;9.90;5.87;;;13.10;77.60;;;;;;5062052;28;20499;-78
2022/05/06 03:34:25;;;;;;;14.40;5.60;;;13.00;77.60;;;;;;5079115;28;20468;-78
2022/05/06 03:36:53;;;;;;;9.40;5.50;;;13.00;77.60;;;;;;5064138;28;20899;-78
2022/05/06 03:39:21;;;;;;;8.47;4.93;;;13.00;77.60;;;;;;5064280;28;20837;-76
2022/05/06 03:42:01;;;;;;;7.70;5.27;;;13.00;77.50;;;;;;5057612;28;20470;-79
2022/05/06 03:44:31;;;;;;;9.00;5.97;;;13.00;77.50;;;;;;5061463;28;20459;-78
2022/05/06 03:46:59;;;;;;;7.97;5.13;;;13.00;77.50;;;;;;5055592;28;20474;-77
2022/05/06 03:49:34;;;;;;;10.27;6.43;;;12.90;77.40;;;;;;5063828;28;20543;-78
2022/05/06 03:52:03;;;;;;;9.23;5.30;;;12.90;77.40;;;;;;5060677;28;20458;-78
2022/05/06 03:54:33;;;;;;;7.80;5.40;;;12.90;77.40;;;;;;5059104;28;20466;-78
2022/05/06 03:57:02;;;;;;;9.97;6.00;;;12.90;77.40;;;;;;5058168;28;20515;-78
2022/05/06 03:59:32;;;;;;;10.57;6.10;;;12.90;77.30;;;;;;5062577;28;20458;-78
2022/05/06 04:02:09;;;;;;;9.27;5.33;;;12.90;77.40;;;;;;5062023;28;21205;-78
2022/05/06 04:04:37;;;;;;;13.23;5.33;;;12.90;77.40;;;;;;5065300;28;21045;-77
2022/05/06 04:07:09;;;;;;;8.77;5.40;;;12.90;77.40;;;;;;5064896;28;21368;-78
2022/05/06 04:09:45;;;;;;;8.40;5.50;;;12.90;77.40;;;;;;5061399;28;20486;-77
2022/05/06 04:12:15;;;;;;;8.37;5.43;;;12.80;77.30;;;;;;5059893;28;20556;-77
2022/05/06 04:14:50;;;;;;;10.10;5.47;;;12.80;77.40;;;;;;5066893;28;20442;-77
2022/05/06 04:17:20;;;;;;;9.53;5.40;;;12.80;77.30;;;;;;5062489;28;20481;-77
2022/05/06 04:25:26;;;;;;;8.10;5.70;;;12.80;77.40;;;;;;5062154;28;20576;-76
2022/05/06 04:27:56;;;;;;;9.30;5.57;;;12.80;77.40;;;;;;5058364;28;20466;-77
2022/05/06 04:30:25;;;;;;;8.40;5.47;;;12.80;77.40;;;;;;5062194;28;20876;-77
2022/05/06 04:33:19;;;;;;;8.53;5.60;;;12.80;77.40;;;;;;5061507;28;20990;-77
2022/05/06 04:35:50;;;;;;;9.10;5.43;;;12.80;77.40;;;;;;5063105;28;20461;-76
2022/05/06 04:38:24;;;;;;;8.87;5.33;;;12.80;77.40;;;;;;5065292;28;20887;-78
2022/05/06 04:40:55;;;;;;;8.57;5.50;;;12.80;77.30;;;;;;5076161;28;20569;-76
2022/05/06 04:43:25;;;;;;;10.20;5.43;;;12.80;77.20;;;;;;5055551;28;20466;-77
2022/05/06 04:45:55;;;;;;;7.70;5.27;;;12.80;77.20;;;;;;5075897;28;20572;-77
2022/05/06 04:48:26;;;;;;;9.90;5.67;;;12.80;77.30;;;;;;5080090;28;20822;-76
2022/05/06 04:50:56;;;;;;;8.20;4.80;;;12.80;77.30;;;;;;5056228;28;20513;-76
2022/05/06 04:53:25;;;;;;;9.37;5.30;;;12.80;77.30;;;;;;5062408;28;20500;-75
2022/05/06 04:55:56;;;;;;;8.73;5.57;;;12.80;77.30;;;;;;5060698;28;20960;-76
2022/05/06 04:58:35;;;;;;;7.90;5.83;;;12.80;77.30;;;;;;5062696;28;20458;-76
2022/05/06 05:01:07;;;;;;;9.33;5.57;;;12.80;77.40;;;;;;5057122;28;21241;-77
2022/05/06 05:03:36;;;;;;;8.67;5.23;;;12.80;77.40;;;;;;5077772;28;20456;-76
2022/05/06 05:06:07;;;;;;;9.40;5.40;;;12.80;77.50;;;;;;5077213;28;20787;-76
2022/05/06 05:08:37;;;;;;;11.73;5.30;;;12.80;77.50;;;;;;5056062;28;21181;-76
2022/05/06 05:11:06;;;;;;;8.23;5.17;;;12.80;77.50;;;;;;5062104;28;20505;-75
2022/05/06 05:13:41;;;;;;;8.60;5.97;;;12.80;77.50;;;;;;5062698;28;20481;-76
2022/05/06 05:16:17;;;;;;;10.20;5.90;;;12.90;77.50;;;;;;5062326;28;20487;-75
2022/05/06 05:18:46;;;;;;;8.20;5.70;;;12.90;77.50;;;;;;5062838;28;20469;-76
2022/05/06 05:21:14;;;;;;;9.50;5.10;;;12.90;77.60;;;;;;5060927;28;21405;-75
2022/05/06 05:23:42;;;;;;;8.20;5.80;;;13.00;77.60;;;;;;5062828;28;20454;-76
2022/05/06 05:26:10;;;;;;;9.90;5.90;;;13.00;77.60;;;;;;5059294;28;20472;-76
2022/05/06 05:28:41;;;;;;;9.63;6.17;;;13.00;77.60;;;;;;5063742;28;20460;-75
2022/05/06 05:31:09;;;;;;;8.47;5.40;;;13.10;77.60;;;;;;5058160;28;20850;-76
2022/05/06 05:33:40;;;;;;;10.20;6.60;;;13.10;77.70;;;;;;5062506;28;21025;-76
2022/05/06 05:36:09;;;;;;;9.17;5.60;;;13.10;77.70;;;;;;5057285;28;20454;-76
2022/05/06 05:38:38;;;;;;;12.10;6.23;;;13.20;77.70;;;;;;5077320;28;20605;-75
2022/05/06 05:41:06;;;;;;;10.10;5.90;;;13.20;77.80;;;;;;5056322;28;20483;-76
2022/05/06 05:49:11;;;;;;;11.37;6.03;;;13.40;78.00;;;;;;5063804;28;20450;-75
2022/05/06 05:51:43;;;;;;;9.20;6.33;;;13.40;78.00;;;;;;5063538;28;21148;-75
2022/05/06 05:54:11;;;;;;;8.93;5.97;;;13.50;78.00;;;;;;5059418;28;20480;-75
2022/05/06 05:56:39;;;;;;;11.27;7.10;;;13.50;78.00;;;;;;5062104;28;20469;-75
2022/05/06 05:59:10;;;;;;;9.80;6.40;;;13.60;78.00;;;;;;5062140;28;20454;-76
2022/05/06 06:01:40;;;;;;;8.57;5.57;;;13.70;78.00;;;;;;5062193;28;20486;-76
2022/05/06 06:04:10;;;;;;;8.37;5.40;;;13.80;78.00;;;;;;5053142;28;20455;-76
2022/05/06 06:06:43;;;;;;;13.53;6.93;;;13.80;77.90;;;;;;5055636;28;20451;-76
2022/05/06 06:09:15;;;;;;;8.83;5.90;;;13.80;77.90;;;;;;5061330;28;20454;-76
2022/05/06 06:11:44;;;;;;;11.40;5.73;;;13.80;77.80;;;;;;5062883;28;20484;-75
2022/05/06 06:14:14;;;;;;;10.27;5.73;;;13.90;77.80;;;;;;5062829;28;20498;-76
2022/05/06 06:16:44;;;;;;;12.70;6.80;;;13.90;77.80;;;;;;5059999;28;20512;-76
2022/05/06 06:19:12;;;;;;;9.80;6.93;;;13.90;77.90;;;;;;5065025;28;20469;-76
2022/05/06 06:21:44;;;;;;;10.63;5.97;;;14.00;77.80;;;;;;5069249;28;20515;-76
2022/05/06 06:24:15;;;;;;;10.47;6.10;;;14.00;77.90;;;;;;5059083;28;21135;-76
2022/05/06 06:26:43;;;;;;;9.00;5.83;;;14.00;77.90;;;;;;5061343;28;20579;-76
2022/05/06 06:29:17;;;;;;;10.00;5.87;;;14.10;77.90;;;;;;5067396;28;20454;-76
2022/05/06 06:31:47;;;;;;;9.00;5.73;;;14.10;77.90;;;;;;5067619;28;20509;-76
2022/05/06 06:34:15;;;;;;;9.83;5.73;;;14.20;77.80;;;;;;5067967;28;20478;-75
2022/05/06 06:36:44;;;;;;;13.60;6.00;;;14.20;77.70;;;;;;5082814;28;20466;-76
2022/05/06 06:39:13;;;;;;;9.73;5.50;;;14.20;77.70;;;;;;5080262;28;20462;-75
2022/05/06 06:41:45;;;;;;;9.17;5.70;;;14.30;77.70;;;;;;5082129;28;20990;-76
2022/05/06 06:44:13;;;;;;;9.30;5.50;;;14.30;77.60;;;;;;5064134;28;20486;-76
2022/05/06 06:46:53;;;;;;;10.30;6.27;;;14.40;77.60;;;;;;5083063;28;20474;-76
2022/05/06 06:49:45;;;;;;;8.17;4.83;;;14.40;77.50;;;;;;5048893;28;20545;-76
2022/05/06 06:52:31;;;;;;;8.43;4.90;;;14.50;77.40;;;;;;5069336;28;20451;-76
2022/05/06 06:54:59;;;;;;;9.57;6.23;;;14.60;77.20;;;;;;5067363;28;21006;-75
2022/05/06 06:57:30;;;;;;;8.67;4.70;;;14.60;77.00;;;;;;5067563;28;21290;-77
2022/05/06 06:59:58;;;;;;;7.70;4.37;;;14.60;77.10;;;;;;5067073;28;21050;-74
2022/05/06 07:02:28;;;;;;;9.40;4.27;;;14.70;76.90;;;;;;5060623;28;20474;-74
2022/05/06 07:04:57;;;;;;;7.43;4.30;;;14.80;76.80;;;;;;5068665;28;20456;-75
2022/05/06 07:13:14;;;;;;;7.70;4.27;;;14.80;76.00;;;;;;5069992;28;20809;-76
2022/05/06 07:15:42;;;;;;;9.47;4.30;;;14.80;75.20;;;;;;5067687;28;20489;-76
2022/05/06 07:18:12;;;;;;;6.60;3.90;;;14.70;75.50;;;;;;5068033;28;20833;-76
2022/05/06 07:20:41;;;;;;;8.40;4.40;;;14.70;75.70;;;;;;5055217;28;21088;-76
2022/05/06 07:23:10;;;;;;;9.50;4.47;;;14.80;75.80;;;;;;5067910;28;20954;-76
2022/05/06 07:25:38;;;;;;;9.00;5.03;;;14.90;75.70;;;;;;5066410;28;20445;-76
2022/05/06 07:28:07;;;;;;;8.43;4.70;;;14.90;75.60;;;;;;5065280;28;20457;-77
2022/05/06 07:30:36;;;;;;;11.43;4.83;;;15.00;75.50;;;;;;5066793;28;20476;-77
2022/05/06 07:33:04;;;;;;;7.13;4.83;;;15.00;75.50;;;;;;5066395;28;20458;-76
2022/05/06 07:35:39;;;;;;;9.53;4.97;;;15.00;75.40;;;;;;5068020;28;20479;-76
2022/05/06 07:38:07;;;;;;;11.27;5.30;;;15.10;75.50;;;;;;5065647;28;20967;-76
2022/05/06 07:40:35;;;;;;;9.93;5.00;;;15.10;75.40;;;;;;5065945;28;20488;-76
2022/05/06 07:43:03;;;;;;;9.57;5.20;;;15.10;75.30;;;;;;5066622;28;20457;-76
2022/05/06 07:45:32;;;;;;;7.10;4.73;;;15.10;75.30;;;;;;5066847;28;21073;-76
2022/05/06 07:48:03;;;;;;;8.70;5.33;;;15.10;75.20;;;;;;5066181;28;20442;-76
2022/05/06 07:50:32;;;;;;;9.03;5.33;;;15.20;75.40;;;;;;5066480;28;20509;-76
2022/05/06 07:53:02;;;;;;;8.57;4.67;;;15.20;75.30;;;;;;5072612;28;20446;-77
2022/05/06 07:55:35;;;;;;;8.70;5.57;;;15.20;75.30;;;;;;5067373;28;20469;-76
2022/05/06 07:58:04;;;;;;;7.93;4.73;;;15.30;75.30;;;;;;5067234;28;20450;-76
2022/05/06 08:00:32;;;;;;;7.40;4.47;;;15.30;75.00;;;;;;5058878;28;20486;-76
2022/05/06 08:05:49;;;;;;;8.40;4.10;;;15.30;75.10;;;;;;5067229;28;20454;-76
2022/05/06 08:08:18;;;;;;;9.83;4.60;;;15.30;75.00;;;;;;5066340;28;20469;-77
2022/05/06 08:10:46;;;;;;;8.07;4.43;;;15.30;75.00;;;;;;5065015;28;20478;-76
2022/05/06 08:13:14;;;;;;;6.80;4.40;;;15.30;75.00;;;;;;5065691;28;20548;-77
2022/05/06 08:15:50;;;;;;;7.50;4.30;;;15.40;74.90;;;;;;5064691;28;21069;-77
2022/05/06 08:18:18;;;;;;;8.63;4.40;;;15.30;74.90;;;;;;5063283;28;20505;-76
2022/05/06 08:20:47;;;;;;;6.80;3.90;;;15.40;74.80;;;;;;5064365;28;21009;-76
2022/05/06 08:23:15;;;;;;;5.20;3.27;;;15.40;74.90;;;;;;5065347;28;20454;-76
2022/05/06 08:25:44;;;;;;;5.83;3.60;;;15.50;74.90;;;;;;5066729;28;20442;-77
2022/05/06 08:28:13;;;;;;;5.90;3.13;;;15.50;74.90;;;;;;5066850;28;20531;-77
2022/05/06 08:30:41;;;;;;;5.03;3.07;;;15.60;74.60;;;;;;5066140;28;20777;-76
2022/05/06 08:33:10;;;;;;;4.97;2.30;;;15.70;74.40;;;;;;5065846;28;20974;-77
2022/05/06 08:35:38;;;;;;;5.70;3.33;;;15.70;74.10;;;;;;5066627;28;20482;-77
2022/05/06 08:38:07;;;;;;;8.20;3.50;;;15.70;73.60;;;;;;5066872;28;20446;-76
2022/05/06 08:40:35;;;;;;;7.60;3.37;;;15.70;73.10;;;;;;5064938;28;20583;-77
2022/05/06 08:43:05;;;;;;;7.10;3.10;;;15.70;72.60;;;;;;5066938;28;20485;-76
2022/05/06 08:51:06;;;;;;;5.27;2.83;;;15.80;72.00;;;;;;5064784;28;20489;-75
2022/05/06 08:53:35;;;;;;;5.13;2.90;;;15.90;71.70;;;;;;5066325;28;20487;-76
2022/05/06 08:56:04;;;;;;;5.73;3.00;;;15.90;69.80;;;;;;5066342;28;20482;-77
2022/05/06 08:58:36;;;;;;;6.53;2.57;;;15.90;71.10;;;;;;5066175;28;20453;-77
2022/05/06 09:01:07;;;;;;;8.03;2.77;;;16.00;70.90;;;;;;5064874;28;20478;-76
2022/05/06 09:03:44;;;;;;;4.77;2.23;;;16.10;70.90;;;;;;5065029;28;20935;-76
2022/05/06 09:06:18;;;;;;;9.40;1.87;;;16.10;70.10;;;;;;5065766;28;21142;-76
2022/05/06 09:08:47;;;;;;;6.20;2.30;;;16.20;69.70;;;;;;5053742;28;20450;-76
2022/05/06 09:11:18;;;;;;;4.30;2.13;;;16.30;69.60;;;;;;5065064;28;21000;-76
2022/05/06 09:13:56;;;;;;;4.47;2.27;;;16.40;69.30;;;;;;5076955;28;20537;-76
2022/05/06 09:16:39;;;;;;;5.10;2.07;;;16.40;68.90;;;;;;5065307;28;20473;-77
2022/05/06 09:19:14;;;;;;;5.53;2.50;;;16.50;68.20;;;;;;5064964;28;20457;-77
2022/05/06 09:21:59;;;;;;;5.17;2.27;;;16.50;68.20;;;;;;5067175;28;20481;-77
2022/05/06 09:24:28;;;;;;;4.63;1.90;;;16.60;67.50;;;;;;5066369;28;20627;-76
2022/05/06 09:26:59;;;;;;;6.40;1.87;;;16.60;67.30;;;;;;5066833;28;20499;-76
2022/05/06 09:29:29;;;;;;;5.20;1.77;;;16.60;66.30;;;;;;5065536;28;20450;-76
2022/05/06 09:32:14;;;;;;;4.80;1.90;;;16.70;66.70;;;;;;5064322;28;20478;-76
2022/05/06 09:34:42;;;;;;;4.10;2.00;;;16.70;66.10;;;;;;5065019;28;20445;-77
2022/05/06 09:37:11;;;;;;;5.33;2.00;;;16.70;66.30;;;;;;5068491;28;20953;-77
2022/05/06 09:39:39;;;;;;;5.50;2.27;;;16.80;66.10;;;;;;5065889;28;20506;-76
2022/05/06 09:42:08;;;;;;;5.37;1.90;;;16.80;64.40;;;;;;5066015;28;20478;-77
2022/05/06 09:44:37;;;;;;;5.87;1.83;;;16.80;64.40;;;;;;5081312;28;20982;-76
2022/05/06 09:47:11;;;;;;;5.00;2.20;;;16.80;62.30;;;;;;5066129;28;21117;-76
2022/05/06 09:49:40;;;;;;;12.53;2.27;;;16.80;64.50;;;;;;5063501;28;20585;-77
2022/05/06 09:52:13;;;;;;;5.30;1.90;;;16.90;63.60;;;;;;5059215;28;20472;-75
2022/05/06 09:54:42;;;;;;;4.17;2.07;;;16.90;63.70;;;;;;5066852;28;20464;-77
2022/05/06 09:57:12;;;;;;;4.13;2.00;;;17.00;64.30;;;;;;5066343;28;20486;-77
2022/05/06 09:59:41;;;;;;;6.33;2.67;;;17.00;62.80;;;;;;5066986;28;20513;-77
2022/05/06 10:02:10;;;;;;;6.67;1.80;;;17.10;63.90;;;;;;5065778;28;21021;-78
2022/05/06 10:04:39;;;;;;;4.30;1.63;;;17.20;63.40;;;;;;5064687;28;20497;-75
2022/05/06 10:07:11;;;;;;;5.57;2.20;;;17.20;62.10;;;;;;5066346;28;20460;-76
2022/05/06 10:09:45;;;;;;;4.43;1.83;;;17.30;62.20;;;;;;5066955;28;20454;-76
2022/05/06 10:12:16;;;;;;;5.50;1.97;;;17.30;60.30;;;;;;5065003;28;20546;-76
2022/05/06 10:14:46;;;;;;;5.63;2.37;;;17.30;61.40;;;;;;5067711;28;20457;-76
2022/05/06 10:17:58;;;;;;;4.03;1.73;;;17.30;61.50;;;;;;5067131;28;20512;-76
2022/05/06 10:20:51;;;;;;;4.73;1.50;;;17.30;60.60;;;;;;5056672;28;21702;-75
2022/05/06 10:23:21;;;;;;;3.90;1.27;;;17.30;60.70;;;;;;5064953;28;20469;-76
2022/05/06 10:25:52;;;;;;;3.80;1.40;;;17.30;59.60;;;;;;5067880;28;20453;-76
2022/05/06 10:34:35;;;;;;;4.83;1.60;;;17.60;60.70;;;;;;5065228;28;20993;-76
2022/05/06 10:37:14;;;;;;;3.77;1.30;;;17.60;59.10;;;;;;5064504;28;20508;-76
2022/05/06 10:39:42;;;;;;;4.53;1.33;;;17.60;59.70;;;;;;5064315;28;20489;-76
2022/05/06 10:42:11;;;;;;;4.00;1.60;;;17.60;59.60;;;;;;5067131;28;20465;-77
2022/05/06 10:44:41;;;;;;;4.37;0.93;;;17.60;59.60;;;;;;5067153;28;21200;-77
2022/05/06 10:47:47;;;;;;;5.23;1.40;;;17.70;59.10;;;;;;5062524;28;21144;-78
2022/05/06 10:50:19;;;;;;;5.50;2.07;;;17.70;56.80;;;;;;5066423;28;20486;-77
2022/05/06 10:52:48;;;;;;;3.53;1.13;;;17.70;58.60;;;;;;5068525;28;20477;-76
2022/05/06 10:55:18;;;;;;;4.87;1.30;;;17.70;58.40;;;;;;5067139;28;20950;-77
2022/05/06 10:57:55;;;;;;;3.63;1.17;;;17.80;58.70;;;;;;5067489;28;21014;-76
2022/05/06 11:00:25;;;;;;;4.27;1.40;;;17.80;58.00;;;;;;5065337;28;20474;-76
2022/05/06 11:02:53;;;;;;;3.80;1.30;;;17.90;58.60;;;;;;5066347;28;20450;-78
2022/05/06 11:05:24;;;;;;;4.07;1.20;;;17.90;58.10;;;;;;5066171;28;20470;-76
2022/05/06 11:07:56;;;;;;;5.20;1.50;;;18.00;58.30;;;;;;5064863;28;21150;-76
2022/05/06 11:10:26;;;;;;;4.30;1.70;;;18.10;58.40;;;;;;5064305;28;20897;-76
2022/05/06 11:13:01;;;;;;;4.33;1.10;;;18.10;57.20;;;;;;5056287;28;20897;-76
2022/05/06 11:15:31;;;;;;;4.80;1.30;;;18.10;57.20;;;;;;5077424;28;20473;-76
2022/05/06 11:18:00;;;;;;;3.70;1.37;;;18.00;54.80;;;;;;5065541;28;20474;-77
2022/05/06 11:20:32;;;;;;;6.50;1.40;;;18.00;57.20;;;;;;5064977;28;20518;-76
2022/05/06 11:23:03;;;;;;;4.43;1.60;;;18.00;57.00;;;;;;5065713;28;20504;-77
2022/05/06 11:25:34;;;;;;;4.30;1.37;;;18.10;57.10;;;;;;5066841;28;20454;-77
2022/05/06 11:28:04;;;;;;;4.80;1.23;;;18.10;56.90;;;;;;5064321;28;20458;-77
2022/05/06 11:30:34;;;;;;;6.67;1.73;;;18.10;56.70;;;;;;5061301;28;20471;-76
2022/05/06 11:33:04;;;;;;;3.60;1.33;;;18.20;56.60;;;;;;5058419;28;20541;-76
2022/05/06 11:35:43;;;;;;;12.17;1.60;;;18.20;57.10;;;;;;5061422;28;20458;-76
2022/05/06 11:38:12;;;;;;;3.23;1.20;;;18.30;57.30;;;;;;5058533;28;20481;-76
2022/05/06 11:40:42;;;;;;;3.93;1.53;;;18.30;56.10;;;;;;5063097;28;20474;-76
2022/05/06 11:43:20;;;;;;;3.93;1.70;;;18.30;55.60;;;;;;5063034;28;20450;-76
2022/05/06 11:48:44;;;;;;;3.93;1.70;;;18.40;56.00;;;;;;5054898;28;20562;-77
2022/05/06 11:51:18;;;;;;;4.10;1.50;;;18.40;56.30;;;;;;5080420;28;20567;-76
2022/05/06 11:53:48;;;;;;;5.10;1.90;;;18.40;56.40;;;;;;5065700;28;20462;-75
2022/05/06 11:56:21;;;;;;;4.00;1.57;;;18.50;56.50;;;;;;5055578;28;20466;-79
2022/05/06 11:58:50;;;;;;;4.90;1.57;;;18.50;56.00;;;;;;5067257;28;20442;-78
2022/05/06 12:01:26;;;;;;;5.03;1.20;;;18.50;56.30;;;;;;5061130;28;20509;-77
2022/05/06 12:03:58;;;;;;;3.20;1.20;;;18.60;56.20;;;;;;5061980;28;20991;-76
2022/05/06 12:06:37;;;;;;;4.80;1.50;;;18.60;56.60;;;;;;5061552;28;20496;-78
2022/05/06 12:09:10;;;;;;;4.67;1.50;;;18.70;56.50;;;;;;5066347;28;20455;-78
2022/05/06 12:11:38;;;;;;;6.20;1.77;;;18.70;55.60;;;;;;5067774;28;20497;-78
2022/05/06 12:14:08;;;;;;;3.30;1.30;;;18.70;55.90;;;;;;5066406;28;20470;-78
2022/05/06 12:16:36;;;;;;;4.77;1.20;;;18.80;56.20;;;;;;5069471;28;20481;-77
2022/05/06 12:19:04;;;;;;;3.57;1.20;;;18.80;55.80;;;;;;5064837;28;20458;-76
2022/05/06 12:21:35;;;;;;;4.20;1.80;;;18.80;55.20;;;;;;5081533;28;20493;-74
2022/05/06 12:24:04;;;;;;;3.60;1.20;;;18.80;55.00;;;;;;5064945;28;20464;-79
2022/05/06 12:26:37;;;;;;;6.80;1.33;;;18.70;53.80;;;;;;5077760;28;20546;-75
2022/05/06 12:29:19;;;;;;;3.83;1.43;;;18.70;55.10;;;;;;5075525;28;20820;-79
2022/05/06 12:31:48;;;;;;;3.63;1.40;;;18.80;55.10;;;;;;5060755;28;20553;-78
2022/05/06 12:34:17;;;;;;;4.07;1.53;;;18.80;55.10;;;;;;5061345;28;20459;-76
2022/05/06 12:36:46;;;;;;;3.73;1.20;;;18.80;55.20;;;;;;5063655;28;20481;-75
2022/05/06 12:39:19;;;;;;;3.83;1.50;;;18.90;55.30;;;;;;5075006;28;20467;-75
2022/05/06 12:41:48;;;;;;;4.77;1.80;;;18.90;55.20;;;;;;5063097;28;20465;-77
2022/05/06 12:44:22;;;;;;;5.97;1.57;;;19.00;55.10;;;;;;5062341;28;20449;-74
2022/05/06 12:46:51;;;;;;;6.00;1.90;;;19.00;55.10;;;;;;5062652;28;20478;-76
2022/05/06 12:52:08;;;;;;;4.00;1.30;;;19.10;55.10;;;;;;5064170;28;20532;-77
2022/05/06 12:54:38;;;;;;;4.23;1.13;;;19.20;54.70;;;;;;5064316;28;20446;-77
2022/05/06 12:57:08;;;;;;;4.97;1.37;;;19.20;54.40;;;;;;5065517;28;20493;-77
2022/05/06 12:59:36;;;;;;;3.50;1.20;;;19.30;54.40;;;;;;5066150;28;20482;-76
2022/05/06 13:02:06;;;;;;;4.60;1.30;;;19.30;54.50;;;;;;5059578;28;20529;-75
2022/05/06 13:04:36;;;;;;;3.70;1.50;;;19.30;54.10;;;;;;5060994;28;21425;-77
2022/05/06 13:07:06;;;;;;;5.60;1.70;;;19.40;53.90;;;;;;5059479;28;20460;-78
2022/05/06 13:09:34;;;;;;;4.50;1.90;;;19.40;54.20;;;;;;5075245;28;20458;-78
2022/05/06 13:12:02;;;;;;;4.03;1.30;;;19.40;54.10;;;;;;5064135;28;20464;-78
2022/05/06 13:14:30;;;;;;;5.97;2.20;;;19.40;54.40;;;;;;5059009;28;20449;-74
2022/05/06 13:17:01;;;;;;;6.40;1.57;;;19.40;54.10;;;;;;5057858;28;20479;-76
2022/05/06 13:19:30;;;;;;;4.17;1.73;;;19.40;54.50;;;;;;5059953;28;20888;-76
2022/05/06 13:21:58;;;;;;;4.27;1.60;;;19.40;53.90;;;;;;5063143;28;20962;-79
2022/05/06 13:24:28;;;;;;;5.37;1.50;;;19.50;54.30;;;;;;5080512;28;20463;-77
2022/05/06 13:26:56;;;;;;;6.37;1.27;;;19.50;54.40;;;;;;5068671;28;20473;-78
2022/05/06 13:29:24;;;;;;;7.93;1.40;;;19.50;54.30;;;;;;5064287;28;20468;-78
2022/05/06 13:31:52;;;;;;;5.00;1.60;;;19.60;54.30;;;;;;5064486;28;20479;-77
2022/05/06 13:34:20;;;;;;;4.50;1.33;;;19.60;53.90;;;;;;5067566;28;20456;-75
2022/05/06 13:36:48;;;;;;;4.57;1.40;;;19.60;54.20;;;;;;5066950;28;20444;-76
2022/05/06 13:39:16;;;;;;;5.10;1.30;;;19.70;54.20;;;;;;5064199;28;20478;-76
2022/05/06 13:41:45;;;;;;;4.53;1.70;;;19.70;54.10;;;;;;5064449;28;20553;-78
2022/05/06 13:44:13;;;;;;;5.00;1.90;;;19.70;54.00;;;;;;5063408;28;20470;-76
2022/05/06 13:46:41;;;;;;;5.57;2.20;;;19.70;53.90;;;;;;5061375;28;20483;-78
2022/05/06 13:49:10;;;;;;;3.93;1.63;;;19.80;54.00;;;;;;5065277;28;20446;-78